sensor_id;sensor_type;location;lat;lon;timestamp;P1;durP1;ratioP1;P2;durP2;ratioP2
2728;SDS011;1372;47.956;7.830;2023-04-03T00:01:37;3.93;;;3.43;;
2728;SDS011;1372;47.956;7.830;2023-04-03T00:04:09;4.50;;;4.10;;
2728;SDS011;1372;47.956;7.830;2023-04-03T00:06:38;3.13;;;2.93;;
2728;SDS011;1372;47.956;7.830;2023-04-03T00:09:09;4.70;;;4.07;;
2728;SDS011;1372;47.956;7.830;2023-04-03T00:11:38;3.77;;;3.47;;
2728;SDS011;1372;47.956;7.830;2023-04-03T00:14:07;5.03;;;4.17;;
2728;SDS011;1372;47.956;7.830;2023-04-03T00:16:36;3.80;;;3.37;;
2728;SDS011;1372;47.956;7.830;2023-04-03T00:19:04;4.17;;;3.80;;
2728;SDS011;1372;47.956;7.830;2023-04-03T00:21:35;3.60;;;3.30;;
2728;SDS011;1372;47.956;7.830;2023-04-03T00:24:04;4.00;;;3.40;;
2728;SDS011;1372;47.956;7.830;2023-04-03T00:26:33;4.00;;;3.63;;
2728;SDS011;1372;47.956;7.830;2023-04-03T00:29:02;3.70;;;3.40;;
2728;SDS011;1372;47.956;7.830;2023-04-03T00:31:31;4.20;;;3.90;;
2728;SDS011;1372;47.956;7.830;2023-04-03T00:34:00;3.50;;;3.20;;
2728;SDS011;1372;47.956;7.830;2023-04-03T00:36:29;4.50;;;3.23;;
2728;SDS011;1372;47.956;7.830;2023-04-03T00:39:00;3.43;;;3.23;;
2728;SDS011;1372;47.956;7.830;2023-04-03T00:41:29;3.90;;;3.50;;
2728;SDS011;1372;47.956;7.830;2023-04-03T00:43:58;4.10;;;3.70;;
2728;SDS011;1372;47.956;7.830;2023-04-03T00:46:27;3.83;;;3.50;;
2728;SDS011;1372;47.956;7.830;2023-04-03T00:48:56;6.50;;;4.90;;
2728;SDS011;1372;47.956;7.830;2023-04-03T00:51:25;4.83;;;4.40;;
2728;SDS011;1372;47.956;7.830;2023-04-03T00:53:55;3.70;;;3.33;;
2728;SDS011;1372;47.956;7.830;2023-04-03T00:56:29;3.43;;;3.23;;
2728;SDS011;1372;47.956;7.830;2023-04-03T00:59:00;3.87;;;3.47;;
2728;SDS011;1372;47.956;7.830;2023-04-03T01:01:32;3.57;;;3.27;;
2728;SDS011;1372;47.956;7.830;2023-04-03T01:04:02;4.50;;;4.10;;
2728;SDS011;1372;47.956;7.830;2023-04-03T01:06:33;3.83;;;3.00;;
2728;SDS011;1372;47.956;7.830;2023-04-03T01:09:06;4.73;;;3.80;;
2728;SDS011;1372;47.956;7.830;2023-04-03T01:11:35;3.50;;;3.20;;
2728;SDS011;1372;47.956;7.830;2023-04-03T01:14:04;3.20;;;2.90;;
2728;SDS011;1372;47.956;7.830;2023-04-03T01:16:33;3.37;;;3.07;;
2728;SDS011;1372;47.956;7.830;2023-04-03T01:19:03;3.90;;;3.50;;
2728;SDS011;1372;47.956;7.830;2023-04-03T01:21:40;3.70;;;3.30;;
2728;SDS011;1372;47.956;7.830;2023-04-03T01:24:42;3.20;;;3.00;;
2728;SDS011;1372;47.956;7.830;2023-04-03T01:27:13;4.13;;;3.73;;
2728;SDS011;1372;47.956;7.830;2023-04-03T01:29:42;3.80;;;3.43;;
2728;SDS011;1372;47.956;7.830;2023-04-03T01:32:12;3.20;;;2.90;;
2728;SDS011;1372;47.956;7.830;2023-04-03T01:34:43;3.07;;;2.77;;
2728;SDS011;1372;47.956;7.830;2023-04-03T01:37:12;3.20;;;2.90;;
2728;SDS011;1372;47.956;7.830;2023-04-03T01:39:41;2.83;;;2.63;;
2728;SDS011;1372;47.956;7.830;2023-04-03T01:42:10;3.20;;;3.00;;
2728;SDS011;1372;47.956;7.830;2023-04-03T01:44:39;3.30;;;2.97;;
2728;SDS011;1372;47.956;7.830;2023-04-03T01:47:07;3.40;;;3.10;;
2728;SDS011;1372;47.956;7.830;2023-04-03T01:49:38;2.80;;;2.57;;
2728;SDS011;1372;47.956;7.830;2023-04-03T01:52:06;4.77;;;3.27;;
2728;SDS011;1372;47.956;7.830;2023-04-03T01:54:35;3.50;;;3.20;;
2728;SDS011;1372;47.956;7.830;2023-04-03T01:57:04;4.50;;;3.20;;
2728;SDS011;1372;47.956;7.830;2023-04-03T01:59:33;3.83;;;3.40;;
2728;SDS011;1372;47.956;7.830;2023-04-03T02:02:01;3.27;;;3.00;;
2728;SDS011;1372;47.956;7.830;2023-04-03T02:04:30;3.10;;;2.63;;
2728;SDS011;1372;47.956;7.830;2023-04-03T02:07:00;3.50;;;3.10;;
2728;SDS011;1372;47.956;7.830;2023-04-03T02:09:29;3.07;;;2.87;;
2728;SDS011;1372;47.956;7.830;2023-04-03T02:11:58;2.87;;;2.67;;
2728;SDS011;1372;47.956;7.830;2023-04-03T02:14:28;3.17;;;2.87;;
2728;SDS011;1372;47.956;7.830;2023-04-03T02:16:57;3.47;;;2.70;;
2728;SDS011;1372;47.956;7.830;2023-04-03T02:19:31;3.17;;;2.97;;
2728;SDS011;1372;47.956;7.830;2023-04-03T02:22:01;2.83;;;2.63;;
2728;SDS011;1372;47.956;7.830;2023-04-03T02:24:31;2.90;;;2.50;;
2728;SDS011;1372;47.956;7.830;2023-04-03T02:27:00;4.23;;;3.00;;
2728;SDS011;1372;47.956;7.830;2023-04-03T02:29:31;3.90;;;3.30;;
2728;SDS011;1372;47.956;7.830;2023-04-03T02:31:59;3.00;;;2.80;;
2728;SDS011;1372;47.956;7.830;2023-04-03T02:34:28;4.33;;;2.77;;
2728;SDS011;1372;47.956;7.830;2023-04-03T02:36:57;3.70;;;3.37;;
2728;SDS011;1372;47.956;7.830;2023-04-03T02:39:30;3.07;;;2.77;;
2728;SDS011;1372;47.956;7.830;2023-04-03T02:41:59;3.33;;;2.90;;
2728;SDS011;1372;47.956;7.830;2023-04-03T02:44:27;4.27;;;3.00;;
2728;SDS011;1372;47.956;7.830;2023-04-03T02:46:56;3.37;;;3.07;;
2728;SDS011;1372;47.956;7.830;2023-04-03T02:49:27;3.70;;;3.00;;
2728;SDS011;1372;47.956;7.830;2023-04-03T02:51:56;2.70;;;2.50;;
2728;SDS011;1372;47.956;7.830;2023-04-03T02:54:25;2.83;;;2.60;;
2728;SDS011;1372;47.956;7.830;2023-04-03T02:57:00;3.00;;;2.77;;
2728;SDS011;1372;47.956;7.830;2023-04-03T02:59:29;2.53;;;2.33;;
2728;SDS011;1372;47.956;7.830;2023-04-03T03:01:58;4.73;;;3.40;;
2728;SDS011;1372;47.956;7.830;2023-04-03T03:04:27;2.90;;;2.63;;
2728;SDS011;1372;47.956;7.830;2023-04-03T03:06:56;3.70;;;3.40;;
2728;SDS011;1372;47.956;7.830;2023-04-03T03:09:25;3.97;;;3.60;;
2728;SDS011;1372;47.956;7.830;2023-04-03T03:11:54;2.90;;;2.70;;
2728;SDS011;1372;47.956;7.830;2023-04-03T03:14:24;2.90;;;2.70;;
2728;SDS011;1372;47.956;7.830;2023-04-03T03:16:53;3.07;;;2.87;;
2728;SDS011;1372;47.956;7.830;2023-04-03T03:19:21;3.70;;;3.10;;
2728;SDS011;1372;47.956;7.830;2023-04-03T03:21:50;3.30;;;3.00;;
2728;SDS011;1372;47.956;7.830;2023-04-03T03:24:19;3.17;;;2.87;;
2728;SDS011;1372;47.956;7.830;2023-04-03T03:26:48;3.77;;;3.30;;
2728;SDS011;1372;47.956;7.830;2023-04-03T03:29:19;3.50;;;3.20;;
2728;SDS011;1372;47.956;7.830;2023-04-03T03:31:49;3.53;;;2.97;;
2728;SDS011;1372;47.956;7.830;2023-04-03T03:34:18;3.27;;;2.97;;
2728;SDS011;1372;47.956;7.830;2023-04-03T03:36:47;3.93;;;3.07;;
2728;SDS011;1372;47.956;7.830;2023-04-03T03:39:16;5.07;;;2.93;;
2728;SDS011;1372;47.956;7.830;2023-04-03T03:41:47;3.10;;;2.90;;
2728;SDS011;1372;47.956;7.830;2023-04-03T03:44:16;4.03;;;3.30;;
2728;SDS011;1372;47.956;7.830;2023-04-03T03:46:45;3.10;;;2.80;;
2728;SDS011;1372;47.956;7.830;2023-04-03T03:49:15;2.50;;;2.30;;
2728;SDS011;1372;47.956;7.830;2023-04-03T03:51:43;3.50;;;3.20;;
2728;SDS011;1372;47.956;7.830;2023-04-03T03:54:12;3.30;;;3.00;;
2728;SDS011;1372;47.956;7.830;2023-04-03T03:56:42;3.40;;;3.10;;
2728;SDS011;1372;47.956;7.830;2023-04-03T03:59:11;2.83;;;2.50;;
2728;SDS011;1372;47.956;7.830;2023-04-03T04:01:40;2.73;;;2.53;;
2728;SDS011;1372;47.956;7.830;2023-04-03T04:04:11;3.10;;;2.73;;
2728;SDS011;1372;47.956;7.830;2023-04-03T04:06:41;5.40;;;3.30;;
2728;SDS011;1372;47.956;7.830;2023-04-03T04:09:10;4.30;;;3.23;;
2728;SDS011;1372;47.956;7.830;2023-04-03T04:11:39;3.27;;;2.70;;
2728;SDS011;1372;47.956;7.830;2023-04-03T04:14:08;2.97;;;2.67;;
2728;SDS011;1372;47.956;7.830;2023-04-03T04:16:41;3.30;;;3.00;;
2728;SDS011;1372;47.956;7.830;2023-04-03T04:19:10;5.80;;;3.60;;
2728;SDS011;1372;47.956;7.830;2023-04-03T04:21:38;3.60;;;3.10;;
2728;SDS011;1372;47.956;7.830;2023-04-03T04:24:09;2.57;;;2.37;;
2728;SDS011;1372;47.956;7.830;2023-04-03T04:26:38;3.30;;;3.10;;
2728;SDS011;1372;47.956;7.830;2023-04-03T04:29:08;3.37;;;3.07;;
2728;SDS011;1372;47.956;7.830;2023-04-03T04:31:37;5.60;;;3.27;;
2728;SDS011;1372;47.956;7.830;2023-04-03T04:34:06;4.20;;;3.00;;
2728;SDS011;1372;47.956;7.830;2023-04-03T04:36:35;2.67;;;2.50;;
2728;SDS011;1372;47.956;7.830;2023-04-03T04:39:04;2.67;;;2.47;;
2728;SDS011;1372;47.956;7.830;2023-04-03T04:41:34;2.43;;;2.23;;
2728;SDS011;1372;47.956;7.830;2023-04-03T04:44:03;3.80;;;2.80;;
2728;SDS011;1372;47.956;7.830;2023-04-03T04:46:34;4.73;;;3.33;;
2728;SDS011;1372;47.956;7.830;2023-04-03T04:49:03;3.03;;;2.83;;
2728;SDS011;1372;47.956;7.830;2023-04-03T04:51:32;2.93;;;2.73;;
2728;SDS011;1372;47.956;7.830;2023-04-03T04:54:12;4.00;;;3.20;;
2728;SDS011;1372;47.956;7.830;2023-04-03T04:56:42;3.30;;;3.00;;
2728;SDS011;1372;47.956;7.830;2023-04-03T04:59:11;4.07;;;3.67;;
2728;SDS011;1372;47.956;7.830;2023-04-03T05:01:40;3.60;;;3.30;;
2728;SDS011;1372;47.956;7.830;2023-04-03T05:04:09;3.67;;;3.37;;
2728;SDS011;1372;47.956;7.830;2023-04-03T05:06:39;6.20;;;3.40;;
2728;SDS011;1372;47.956;7.830;2023-04-03T05:09:08;3.70;;;3.40;;
2728;SDS011;1372;47.956;7.830;2023-04-03T05:11:36;3.27;;;2.90;;
2728;SDS011;1372;47.956;7.830;2023-04-03T05:14:07;2.80;;;2.60;;
2728;SDS011;1372;47.956;7.830;2023-04-03T05:16:38;2.47;;;2.37;;
2728;SDS011;1372;47.956;7.830;2023-04-03T05:19:07;3.60;;;3.13;;
2728;SDS011;1372;47.956;7.830;2023-04-03T05:21:36;2.20;;;2.10;;
2728;SDS011;1372;47.956;7.830;2023-04-03T05:24:05;6.47;;;2.43;;
2728;SDS011;1372;47.956;7.830;2023-04-03T05:26:38;2.93;;;2.67;;
2728;SDS011;1372;47.956;7.830;2023-04-03T05:29:08;5.90;;;4.73;;
2728;SDS011;1372;47.956;7.830;2023-04-03T05:31:37;3.57;;;3.27;;
2728;SDS011;1372;47.956;7.830;2023-04-03T05:34:07;2.77;;;2.57;;
2728;SDS011;1372;47.956;7.830;2023-04-03T05:36:35;2.10;;;2.00;;
2728;SDS011;1372;47.956;7.830;2023-04-03T05:39:04;2.23;;;2.13;;
2728;SDS011;1372;47.956;7.830;2023-04-03T05:41:33;3.67;;;2.83;;
2728;SDS011;1372;47.956;7.830;2023-04-03T05:44:02;3.13;;;2.80;;
2728;SDS011;1372;47.956;7.830;2023-04-03T05:46:32;3.10;;;2.80;;
2728;SDS011;1372;47.956;7.830;2023-04-03T05:49:01;2.70;;;2.50;;
2728;SDS011;1372;47.956;7.830;2023-04-03T05:51:31;2.77;;;2.57;;
2728;SDS011;1372;47.956;7.830;2023-04-03T05:54:06;4.60;;;2.70;;
2728;SDS011;1372;47.956;7.830;2023-04-03T05:56:40;4.20;;;2.97;;
2728;SDS011;1372;47.956;7.830;2023-04-03T05:59:09;4.70;;;3.30;;
2728;SDS011;1372;47.956;7.830;2023-04-03T06:01:39;2.77;;;2.57;;
2728;SDS011;1372;47.956;7.830;2023-04-03T06:04:08;4.33;;;3.30;;
2728;SDS011;1372;47.956;7.830;2023-04-03T06:06:43;3.30;;;3.00;;
2728;SDS011;1372;47.956;7.830;2023-04-03T06:09:14;3.00;;;2.63;;
2728;SDS011;1372;47.956;7.830;2023-04-03T06:11:44;3.10;;;2.90;;
2728;SDS011;1372;47.956;7.830;2023-04-03T06:14:13;3.00;;;2.80;;
2728;SDS011;1372;47.956;7.830;2023-04-03T06:16:43;3.60;;;3.17;;
2728;SDS011;1372;47.956;7.830;2023-04-03T06:19:14;2.97;;;2.73;;
2728;SDS011;1372;47.956;7.830;2023-04-03T06:21:43;3.70;;;3.40;;
2728;SDS011;1372;47.956;7.830;2023-04-03T06:24:13;2.90;;;2.70;;
2728;SDS011;1372;47.956;7.830;2023-04-03T06:26:44;2.93;;;2.70;;
2728;SDS011;1372;47.956;7.830;2023-04-03T06:29:13;2.80;;;2.60;;
2728;SDS011;1372;47.956;7.830;2023-04-03T06:31:43;3.40;;;2.80;;
2728;SDS011;1372;47.956;7.830;2023-04-03T06:34:13;2.87;;;2.67;;
2728;SDS011;1372;47.956;7.830;2023-04-03T06:36:42;3.20;;;2.97;;
2728;SDS011;1372;47.956;7.830;2023-04-03T06:39:12;3.40;;;2.57;;
2728;SDS011;1372;47.956;7.830;2023-04-03T06:41:44;2.30;;;2.10;;
2728;SDS011;1372;47.956;7.830;2023-04-03T06:44:13;3.30;;;3.00;;
2728;SDS011;1372;47.956;7.830;2023-04-03T06:46:44;3.00;;;2.80;;
2728;SDS011;1372;47.956;7.830;2023-04-03T06:49:14;2.83;;;2.60;;
2728;SDS011;1372;47.956;7.830;2023-04-03T06:51:48;4.40;;;2.33;;
2728;SDS011;1372;47.956;7.830;2023-04-03T06:54:17;2.13;;;2.03;;
2728;SDS011;1372;47.956;7.830;2023-04-03T06:56:46;2.30;;;1.97;;
2728;SDS011;1372;47.956;7.830;2023-04-03T06:59:17;1.90;;;1.80;;
2728;SDS011;1372;47.956;7.830;2023-04-03T07:01:59;2.27;;;1.80;;
2728;SDS011;1372;47.956;7.830;2023-04-03T07:04:31;1.90;;;1.80;;
2728;SDS011;1372;47.956;7.830;2023-04-03T07:07:00;2.20;;;2.00;;
2728;SDS011;1372;47.956;7.830;2023-04-03T07:09:31;1.60;;;1.50;;
2728;SDS011;1372;47.956;7.830;2023-04-03T07:12:00;2.00;;;1.60;;
2728;SDS011;1372;47.956;7.830;2023-04-03T07:14:30;1.93;;;1.83;;
2728;SDS011;1372;47.956;7.830;2023-04-03T07:17:00;1.77;;;1.67;;
2728;SDS011;1372;47.956;7.830;2023-04-03T07:19:45;1.90;;;1.80;;
2728;SDS011;1372;47.956;7.830;2023-04-03T07:22:14;2.27;;;2.17;;
2728;SDS011;1372;47.956;7.830;2023-04-03T07:24:48;2.20;;;2.00;;
2728;SDS011;1372;47.956;7.830;2023-04-03T07:27:20;2.03;;;1.93;;
2728;SDS011;1372;47.956;7.830;2023-04-03T07:29:52;2.03;;;1.93;;
2728;SDS011;1372;47.956;7.830;2023-04-03T07:32:24;2.23;;;2.03;;
2728;SDS011;1372;47.956;7.830;2023-04-03T07:35:02;2.63;;;1.80;;
2728;SDS011;1372;47.956;7.830;2023-04-03T07:37:33;1.93;;;1.83;;
2728;SDS011;1372;47.956;7.830;2023-04-03T07:40:16;2.53;;;2.33;;
2728;SDS011;1372;47.956;7.830;2023-04-03T07:42:48;3.17;;;2.37;;
2728;SDS011;1372;47.956;7.830;2023-04-03T07:48:19;2.60;;;2.40;;
2728;SDS011;1372;47.956;7.830;2023-04-03T07:50:52;3.07;;;2.87;;
2728;SDS011;1372;47.956;7.830;2023-04-03T07:53:24;2.80;;;2.60;;
2728;SDS011;1372;47.956;7.830;2023-04-03T07:56:00;2.40;;;2.20;;
2728;SDS011;1372;47.956;7.830;2023-04-03T07:58:29;2.33;;;2.07;;
2728;SDS011;1372;47.956;7.830;2023-04-03T08:01:01;2.40;;;2.20;;
2728;SDS011;1372;47.956;7.830;2023-04-03T08:03:34;3.60;;;2.37;;
2728;SDS011;1372;47.956;7.830;2023-04-03T08:06:07;3.23;;;2.93;;
2728;SDS011;1372;47.956;7.830;2023-04-03T08:08:43;2.90;;;2.70;;
2728;SDS011;1372;47.956;7.830;2023-04-03T08:11:27;3.50;;;2.67;;
2728;SDS011;1372;47.956;7.830;2023-04-03T08:14:07;3.10;;;2.67;;
2728;SDS011;1372;47.956;7.830;2023-04-03T08:16:44;3.97;;;2.97;;
2728;SDS011;1372;47.956;7.830;2023-04-03T08:19:50;3.00;;;2.77;;
2728;SDS011;1372;47.956;7.830;2023-04-03T08:22:36;3.93;;;2.67;;
2728;SDS011;1372;47.956;7.830;2023-04-03T08:25:08;2.43;;;2.23;;
2728;SDS011;1372;47.956;7.830;2023-04-03T08:27:37;3.50;;;3.00;;
2728;SDS011;1372;47.956;7.830;2023-04-03T08:30:06;3.30;;;3.00;;
2728;SDS011;1372;47.956;7.830;2023-04-03T08:32:36;3.30;;;3.10;;
2728;SDS011;1372;47.956;7.830;2023-04-03T08:35:10;3.30;;;3.00;;
2728;SDS011;1372;47.956;7.830;2023-04-03T08:37:42;3.30;;;2.63;;
2728;SDS011;1372;47.956;7.830;2023-04-03T08:40:13;2.77;;;2.57;;
2728;SDS011;1372;47.956;7.830;2023-04-03T08:42:49;3.10;;;2.90;;
2728;SDS011;1372;47.956;7.830;2023-04-03T08:45:26;2.73;;;2.53;;
2728;SDS011;1372;47.956;7.830;2023-04-03T08:48:06;2.80;;;2.60;;
2728;SDS011;1372;47.956;7.830;2023-04-03T08:50:43;3.60;;;3.13;;
2728;SDS011;1372;47.956;7.830;2023-04-03T08:53:19;3.17;;;2.97;;
2728;SDS011;1372;47.956;7.830;2023-04-03T08:55:53;3.07;;;2.87;;
2728;SDS011;1372;47.956;7.830;2023-04-03T08:58:25;3.17;;;2.97;;
2728;SDS011;1372;47.956;7.830;2023-04-03T09:00:59;3.43;;;3.13;;
2728;SDS011;1372;47.956;7.830;2023-04-03T09:03:31;3.27;;;3.07;;
2728;SDS011;1372;47.956;7.830;2023-04-03T09:06:06;3.40;;;2.97;;
2728;SDS011;1372;47.956;7.830;2023-04-03T09:08:43;4.00;;;3.60;;
2728;SDS011;1372;47.956;7.830;2023-04-03T09:11:20;3.40;;;3.20;;
2728;SDS011;1372;47.956;7.830;2023-04-03T09:13:54;4.10;;;3.70;;
2728;SDS011;1372;47.956;7.830;2023-04-03T09:16:33;3.60;;;3.30;;
2728;SDS011;1372;47.956;7.830;2023-04-03T09:19:13;3.87;;;3.57;;
2728;SDS011;1372;47.956;7.830;2023-04-03T09:21:55;2.93;;;2.70;;
2728;SDS011;1372;47.956;7.830;2023-04-03T09:24:24;4.20;;;3.77;;
2728;SDS011;1372;47.956;7.830;2023-04-03T09:26:55;4.17;;;3.87;;
2728;SDS011;1372;47.956;7.830;2023-04-03T09:29:29;3.90;;;3.53;;
2728;SDS011;1372;47.956;7.830;2023-04-03T09:31:59;3.43;;;3.20;;
2728;SDS011;1372;47.956;7.830;2023-04-03T09:34:30;4.23;;;3.50;;
2728;SDS011;1372;47.956;7.830;2023-04-03T09:37:05;3.50;;;2.90;;
2728;SDS011;1372;47.956;7.830;2023-04-03T09:39:48;3.63;;;3.33;;
2728;SDS011;1372;47.956;7.830;2023-04-03T09:42:21;3.40;;;3.10;;
2728;SDS011;1372;47.956;7.830;2023-04-03T09:44:53;2.93;;;2.73;;
2728;SDS011;1372;47.956;7.830;2023-04-03T09:47:24;3.30;;;3.00;;
2728;SDS011;1372;47.956;7.830;2023-04-03T09:50:09;4.10;;;2.90;;
2728;SDS011;1372;47.956;7.830;2023-04-03T09:52:52;2.80;;;2.50;;
2728;SDS011;1372;47.956;7.830;2023-04-03T09:55:21;2.80;;;2.60;;
2728;SDS011;1372;47.956;7.830;2023-04-03T09:57:57;2.30;;;2.20;;
2728;SDS011;1372;47.956;7.830;2023-04-03T10:00:28;2.60;;;2.40;;
2728;SDS011;1372;47.956;7.830;2023-04-03T10:03:02;2.87;;;2.30;;
2728;SDS011;1372;47.956;7.830;2023-04-03T10:05:33;2.40;;;2.20;;
2728;SDS011;1372;47.956;7.830;2023-04-03T10:08:15;2.23;;;1.87;;
2728;SDS011;1372;47.956;7.830;2023-04-03T10:11:11;2.60;;;2.40;;
2728;SDS011;1372;47.956;7.830;2023-04-03T10:13:50;2.40;;;2.23;;
2728;SDS011;1372;47.956;7.830;2023-04-03T10:16:27;3.00;;;1.97;;
2728;SDS011;1372;47.956;7.830;2023-04-03T10:22:04;2.37;;;2.17;;
2728;SDS011;1372;47.956;7.830;2023-04-03T10:24:52;2.80;;;2.20;;
2728;SDS011;1372;47.956;7.830;2023-04-03T10:27:32;2.20;;;2.00;;
2728;SDS011;1372;47.956;7.830;2023-04-03T10:30:20;2.17;;;1.97;;
2728;SDS011;1372;47.956;7.830;2023-04-03T10:33:05;1.60;;;1.50;;
2728;SDS011;1372;47.956;7.830;2023-04-03T10:36:17;2.30;;;2.00;;
2728;SDS011;1372;47.956;7.830;2023-04-03T10:38:58;2.10;;;2.00;;
2728;SDS011;1372;47.956;7.830;2023-04-03T10:41:45;1.77;;;1.67;;
2728;SDS011;1372;47.956;7.830;2023-04-03T10:44:42;2.20;;;2.10;;
2728;SDS011;1372;47.956;7.830;2023-04-03T10:47:31;2.27;;;2.13;;
2728;SDS011;1372;47.956;7.830;2023-04-03T10:50:13;1.87;;;1.77;;
2728;SDS011;1372;47.956;7.830;2023-04-03T10:53:02;2.53;;;2.33;;
2728;SDS011;1372;47.956;7.830;2023-04-03T10:55:40;1.90;;;1.80;;
2728;SDS011;1372;47.956;7.830;2023-04-03T10:58:19;2.90;;;2.17;;
2728;SDS011;1372;47.956;7.830;2023-04-03T11:00:54;2.37;;;2.17;;
2728;SDS011;1372;47.956;7.830;2023-04-03T11:03:34;2.47;;;2.27;;
2728;SDS011;1372;47.956;7.830;2023-04-03T11:06:07;2.30;;;2.07;;
2728;SDS011;1372;47.956;7.830;2023-04-03T11:08:41;2.53;;;2.33;;
2728;SDS011;1372;47.956;7.830;2023-04-03T11:11:15;2.77;;;2.07;;
2728;SDS011;1372;47.956;7.830;2023-04-03T11:13:50;2.10;;;2.00;;
2728;SDS011;1372;47.956;7.830;2023-04-03T11:16:26;2.60;;;2.40;;
2728;SDS011;1372;47.956;7.830;2023-04-03T11:19:04;2.53;;;2.33;;
2728;SDS011;1372;47.956;7.830;2023-04-03T11:21:48;2.60;;;2.40;;
2728;SDS011;1372;47.956;7.830;2023-04-03T11:24:25;1.80;;;1.70;;
2728;SDS011;1372;47.956;7.830;2023-04-03T11:26:59;2.33;;;1.83;;
2728;SDS011;1372;47.956;7.830;2023-04-03T11:29:34;1.60;;;1.50;;
2728;SDS011;1372;47.956;7.830;2023-04-03T11:32:11;2.33;;;2.00;;
2728;SDS011;1372;47.956;7.830;2023-04-03T11:35:04;2.17;;;2.07;;
2728;SDS011;1372;47.956;7.830;2023-04-03T11:37:47;1.97;;;1.87;;
2728;SDS011;1372;47.956;7.830;2023-04-03T11:40:21;1.93;;;1.83;;
2728;SDS011;1372;47.956;7.830;2023-04-03T11:42:55;2.33;;;2.10;;
2728;SDS011;1372;47.956;7.830;2023-04-03T11:45:54;2.63;;;2.47;;
2728;SDS011;1372;47.956;7.830;2023-04-03T11:48:45;2.27;;;2.00;;
2728;SDS011;1372;47.956;7.830;2023-04-03T11:51:40;2.30;;;2.10;;
2728;SDS011;1372;47.956;7.830;2023-04-03T12:12:33;2.63;;;2.43;;
2728;SDS011;1372;47.956;7.830;2023-04-03T12:15:20;2.10;;;1.90;;
2728;SDS011;1372;47.956;7.830;2023-04-03T12:18:41;2.13;;;1.93;;
2728;SDS011;1372;47.956;7.830;2023-04-03T12:21:19;2.30;;;2.10;;
2728;SDS011;1372;47.956;7.830;2023-04-03T12:24:29;2.50;;;2.17;;
2728;SDS011;1372;47.956;7.830;2023-04-03T12:27:11;2.30;;;2.10;;
2728;SDS011;1372;47.956;7.830;2023-04-03T12:30:00;2.43;;;2.27;;
2728;SDS011;1372;47.956;7.830;2023-04-03T12:32:55;2.50;;;2.30;;
2728;SDS011;1372;47.956;7.830;2023-04-03T12:35:40;2.60;;;2.30;;
2728;SDS011;1372;47.956;7.830;2023-04-03T12:41:30;2.50;;;2.30;;
2728;SDS011;1372;47.956;7.830;2023-04-03T12:44:17;2.77;;;2.57;;
2728;SDS011;1372;47.956;7.830;2023-04-03T12:47:06;2.20;;;2.07;;
2728;SDS011;1372;47.956;7.830;2023-04-03T12:49:51;2.03;;;1.93;;
2728;SDS011;1372;47.956;7.830;2023-04-03T12:52:32;2.70;;;2.40;;
2728;SDS011;1372;47.956;7.830;2023-04-03T12:55:14;2.27;;;2.10;;
2728;SDS011;1372;47.956;7.830;2023-04-03T12:57:51;2.20;;;1.97;;
2728;SDS011;1372;47.956;7.830;2023-04-03T13:00:22;2.50;;;2.30;;
2728;SDS011;1372;47.956;7.830;2023-04-03T13:03:02;2.10;;;2.00;;
2728;SDS011;1372;47.956;7.830;2023-04-03T13:05:33;2.20;;;2.00;;
2728;SDS011;1372;47.956;7.830;2023-04-03T13:08:04;2.40;;;2.20;;
2728;SDS011;1372;47.956;7.830;2023-04-03T13:10:43;2.40;;;2.30;;
2728;SDS011;1372;47.956;7.830;2023-04-03T13:13:23;9.93;;;5.20;;
2728;SDS011;1372;47.956;7.830;2023-04-03T13:15:53;3.37;;;3.07;;
2728;SDS011;1372;47.956;7.830;2023-04-03T13:18:25;3.03;;;2.73;;
2728;SDS011;1372;47.956;7.830;2023-04-03T13:21:00;2.50;;;2.30;;
2728;SDS011;1372;47.956;7.830;2023-04-03T13:23:40;2.93;;;2.63;;
2728;SDS011;1372;47.956;7.830;2023-04-03T13:26:20;2.50;;;2.30;;
2728;SDS011;1372;47.956;7.830;2023-04-03T13:28:52;3.40;;;3.10;;
2728;SDS011;1372;47.956;7.830;2023-04-03T13:31:23;2.60;;;2.40;;
2728;SDS011;1372;47.956;7.830;2023-04-03T13:33:58;2.67;;;2.47;;
2728;SDS011;1372;47.956;7.830;2023-04-03T13:36:33;2.47;;;2.27;;
2728;SDS011;1372;47.956;7.830;2023-04-03T13:39:05;3.93;;;2.73;;
2728;SDS011;1372;47.956;7.830;2023-04-03T13:41:51;2.10;;;2.00;;
2728;SDS011;1372;47.956;7.830;2023-04-03T13:44:28;2.73;;;2.53;;
2728;SDS011;1372;47.956;7.830;2023-04-03T13:47:14;3.93;;;3.63;;
2728;SDS011;1372;47.956;7.830;2023-04-03T13:49:58;4.43;;;3.63;;
2728;SDS011;1372;47.956;7.830;2023-04-03T13:52:32;3.37;;;3.07;;
2728;SDS011;1372;47.956;7.830;2023-04-03T13:55:15;3.10;;;2.80;;
2728;SDS011;1372;47.956;7.830;2023-04-03T13:57:54;2.70;;;2.50;;
2728;SDS011;1372;47.956;7.830;2023-04-03T14:00:30;5.67;;;5.03;;
2728;SDS011;1372;47.956;7.830;2023-04-03T14:03:11;3.10;;;2.90;;
2728;SDS011;1372;47.956;7.830;2023-04-03T14:05:42;3.43;;;2.77;;
2728;SDS011;1372;47.956;7.830;2023-04-03T14:08:11;4.60;;;3.90;;
2728;SDS011;1372;47.956;7.830;2023-04-03T14:10:41;3.23;;;2.93;;
2728;SDS011;1372;47.956;7.830;2023-04-03T14:13:12;2.37;;;2.27;;
2728;SDS011;1372;47.956;7.830;2023-04-03T14:15:45;3.53;;;2.13;;
2728;SDS011;1372;47.956;7.830;2023-04-03T14:18:18;2.10;;;2.00;;
2728;SDS011;1372;47.956;7.830;2023-04-03T14:20:49;3.00;;;2.80;;
2728;SDS011;1372;47.956;7.830;2023-04-03T14:23:18;2.50;;;2.30;;
2728;SDS011;1372;47.956;7.830;2023-04-03T14:25:48;2.90;;;2.10;;
2728;SDS011;1372;47.956;7.830;2023-04-03T14:28:18;3.10;;;2.90;;
2728;SDS011;1372;47.956;7.830;2023-04-03T14:30:51;2.87;;;2.50;;
2728;SDS011;1372;47.956;7.830;2023-04-03T14:33:21;2.93;;;2.73;;
2728;SDS011;1372;47.956;7.830;2023-04-03T14:35:52;2.60;;;2.40;;
2728;SDS011;1372;47.956;7.830;2023-04-03T14:38:24;5.13;;;4.30;;
2728;SDS011;1372;47.956;7.830;2023-04-03T14:40:55;3.47;;;3.20;;
2728;SDS011;1372;47.956;7.830;2023-04-03T14:43:35;2.07;;;1.93;;
2728;SDS011;1372;47.956;7.830;2023-04-03T14:46:10;2.00;;;1.90;;
2728;SDS011;1372;47.956;7.830;2023-04-03T14:48:43;2.07;;;1.97;;
2728;SDS011;1372;47.956;7.830;2023-04-03T14:51:13;2.33;;;2.10;;
2728;SDS011;1372;47.956;7.830;2023-04-03T14:53:44;2.47;;;2.23;;
2728;SDS011;1372;47.956;7.830;2023-04-03T14:56:14;1.87;;;1.77;;
2728;SDS011;1372;47.956;7.830;2023-04-03T14:58:49;2.27;;;2.17;;
2728;SDS011;1372;47.956;7.830;2023-04-03T15:01:30;1.97;;;1.87;;
2728;SDS011;1372;47.956;7.830;2023-04-03T15:03:59;2.40;;;2.20;;
2728;SDS011;1372;47.956;7.830;2023-04-03T15:06:28;1.93;;;1.83;;
2728;SDS011;1372;47.956;7.830;2023-04-03T15:09:00;2.33;;;2.13;;
2728;SDS011;1372;47.956;7.830;2023-04-03T15:11:29;3.47;;;3.17;;
2728;SDS011;1372;47.956;7.830;2023-04-03T15:13:58;2.90;;;2.60;;
2728;SDS011;1372;47.956;7.830;2023-04-03T15:16:27;2.47;;;2.27;;
2728;SDS011;1372;47.956;7.830;2023-04-03T15:18:57;3.07;;;2.40;;
2728;SDS011;1372;47.956;7.830;2023-04-03T15:21:26;2.40;;;2.27;;
2728;SDS011;1372;47.956;7.830;2023-04-03T15:23:55;2.40;;;2.30;;
2728;SDS011;1372;47.956;7.830;2023-04-03T15:26:26;2.80;;;2.60;;
2728;SDS011;1372;47.956;7.830;2023-04-03T15:28:55;1.93;;;1.73;;
2728;SDS011;1372;47.956;7.830;2023-04-03T15:31:24;2.33;;;2.13;;
2728;SDS011;1372;47.956;7.830;2023-04-03T15:33:57;2.27;;;2.13;;
2728;SDS011;1372;47.956;7.830;2023-04-03T15:36:26;1.70;;;1.60;;
2728;SDS011;1372;47.956;7.830;2023-04-03T15:39:00;2.20;;;2.10;;
2728;SDS011;1372;47.956;7.830;2023-04-03T15:41:29;2.30;;;2.20;;
2728;SDS011;1372;47.956;7.830;2023-04-03T15:43:59;2.17;;;1.90;;
2728;SDS011;1372;47.956;7.830;2023-04-03T15:46:27;2.70;;;2.50;;
2728;SDS011;1372;47.956;7.830;2023-04-03T15:48:58;2.80;;;2.20;;
2728;SDS011;1372;47.956;7.830;2023-04-03T15:51:27;2.20;;;2.03;;
2728;SDS011;1372;47.956;7.830;2023-04-03T15:53:57;2.07;;;1.93;;
2728;SDS011;1372;47.956;7.830;2023-04-03T15:56:25;2.53;;;1.83;;
2728;SDS011;1372;47.956;7.830;2023-04-03T15:58:54;1.87;;;1.77;;
2728;SDS011;1372;47.956;7.830;2023-04-03T16:01:23;2.53;;;2.33;;
2728;SDS011;1372;47.956;7.830;2023-04-03T16:03:52;2.50;;;2.40;;
2728;SDS011;1372;47.956;7.830;2023-04-03T16:06:24;2.30;;;2.20;;
2728;SDS011;1372;47.956;7.830;2023-04-03T16:08:56;2.70;;;2.50;;
2728;SDS011;1372;47.956;7.830;2023-04-03T16:11:25;2.33;;;2.13;;
2728;SDS011;1372;47.956;7.830;2023-04-03T16:13:55;2.23;;;1.90;;
2728;SDS011;1372;47.956;7.830;2023-04-03T16:16:24;2.20;;;2.00;;
2728;SDS011;1372;47.956;7.830;2023-04-03T16:18:54;2.30;;;1.90;;
2728;SDS011;1372;47.956;7.830;2023-04-03T16:21:25;2.00;;;1.90;;